Ronnie Rogers — WDD2270 — position and weather

sailwx.info

Track history (hours):
 
Tides and Currents Weather Stations Pressure Air Temp Water Temp Dewpoint Dewpoint Depression Visibility Wind Speed Wind Dir Waves Ship Positions

Ronnie Rogers

Owner: Florida Marine, LLC, Mandeville, LA. More information available from US FCC via Universal Licensing System and Coast Guard Vessel Documentation Center.

Last reported at 2016-May-06 20:33 UTC. Time now 2016-May-06 20:36 UTC.
Position N 30°04' W 093°26'.

Length 27 m.

Type: Other ship. MMSI: 367113160.

Date/timePositionNaut miles runAvg speedWind from/ knotsBaromVisibWave heightAir tempDewpointWater temp
2016-May-06 20:33N 30°04' W 093°26'8 7.8
2016-May-06 19:33N 30°04' W 093°35'8 7.5
2016-May-06 18:33N 30°03' W 093°43'10 3.2
2016-May-06 15:29N 29°59' W 093°54'2 2.4
2016-May-06 14:32N 29°58' W 093°52'0 0.0
2016-May-06 12:28N 29°58' W 093°52'4 3.9
2016-May-06 11:33N 29°60' W 093°55'0 0.0
2016-May-06 10:30N 29°60' W 093°55'3 0.1
2016-May-05 13:14N 30°01' W 093°58'0 0.0
2016-May-05 12:33N 30°01' W 093°58'0 0.0
2016-May-05 11:34N 30°01' W 093°58'0 0.0
2016-May-05 10:33N 30°01' W 093°58'0 0.0
2016-May-05 09:33N 30°01' W 093°58'0 0.0
2016-May-05 08:32N 30°01' W 093°58'0 0.0
2016-May-05 07:33N 30°01' W 093°58'0 0.0
2016-May-05 06:33N 30°01' W 093°58'0 0.0
2016-May-05 05:34N 30°01' W 093°58'0 0.0
2016-May-05 04:34N 30°01' W 093°58'3 0.2
2016-May-04 14:06N 29°60' W 093°55'0 0.0
2016-May-04 13:33N 29°60' W 093°55'0 0.0
2016-May-04 12:33N 29°60' W 093°55'0 0.0
2016-May-04 11:33N 29°60' W 093°55'0 0.0
2016-May-04 10:33N 29°60' W 093°55'0 0.0
2016-May-04 09:33N 29°60' W 093°55'1 0.6
2016-May-04 08:33N 29°60' W 093°55'3 2.5
2016-May-04 07:33N 30°01' W 093°58'3 3.2
2016-May-04 06:33N 29°60' W 093°55'1 1.1
2016-May-04 05:33N 29°59' W 093°54'3 2.8
2016-May-04 04:33N 29°59' W 093°50'8 7.6
2016-May-04 03:34N 30°03' W 093°43'6 5.6
2016-May-04 02:34N 30°04' W 093°37'5 4.9
2016-May-04 01:34N 30°04' W 093°31'5 4.8
2016-May-04 00:34N 30°04' W 093°26'4 4.1
2016-May-03 23:33N 30°04' W 093°21'3 3.3
2016-May-03 22:33N 30°05' W 093°18'3 3.5
2016-May-03 21:34N 30°02' W 093°16'3 3.3
2016-May-03 20:34N 29°60' W 093°13'3 3.5
2016-May-03 19:34N 29°57' W 093°10'5 5.2
2016-May-03 18:34N 29°56' W 093°05'6 5.8
2016-May-03 17:33N 29°56' W 092°58'  
Track history (hours):
 
Tides and Currents Weather Stations Pressure Air Temp Water Temp Dewpoint Dewpoint Depression Visibility Wind Speed Wind Dir Waves Ship Positions

Ronnie Rogers

Owner: Florida Marine, LLC, Mandeville, LA. More information available from US FCC via Universal Licensing System and Coast Guard Vessel Documentation Center.

Last reported at 2016-May-06 20:33 UTC. Time now 2016-May-06 20:36 UTC.
Position N 30°04' W 093°26'.

Length 27 m.

Type: Other ship. MMSI: 367113160.

Date/timePositionNaut miles runAvg speedWind from/ knotsBaromVisibWave heightAir tempDewpointWater temp
2016-May-06 20:33N 30°04' W 093°26'8 7.8
2016-May-06 19:33N 30°04' W 093°35'8 7.5
2016-May-06 18:33N 30°03' W 093°43'10 3.2
2016-May-06 15:29N 29°59' W 093°54'2 2.4
2016-May-06 14:32N 29°58' W 093°52'0 0.0
2016-May-06 12:28N 29°58' W 093°52'4 3.9
2016-May-06 11:33N 29°60' W 093°55'0 0.0
2016-May-06 10:30N 29°60' W 093°55'3 0.1
2016-May-05 13:14N 30°01' W 093°58'0 0.0
2016-May-05 12:33N 30°01' W 093°58'0 0.0
2016-May-05 11:34N 30°01' W 093°58'0 0.0
2016-May-05 10:33N 30°01' W 093°58'0 0.0
2016-May-05 09:33N 30°01' W 093°58'0 0.0
2016-May-05 08:32N 30°01' W 093°58'0 0.0
2016-May-05 07:33N 30°01' W 093°58'0 0.0
2016-May-05 06:33N 30°01' W 093°58'0 0.0
2016-May-05 05:34N 30°01' W 093°58'0 0.0
2016-May-05 04:34N 30°01' W 093°58'3 0.2
2016-May-04 14:06N 29°60' W 093°55'0 0.0
2016-May-04 13:33N 29°60' W 093°55'0 0.0
2016-May-04 12:33N 29°60' W 093°55'0 0.0
2016-May-04 11:33N 29°60' W 093°55'0 0.0
2016-May-04 10:33N 29°60' W 093°55'0 0.0
2016-May-04 09:33N 29°60' W 093°55'1 0.6
2016-May-04 08:33N 29°60' W 093°55'3 2.5
2016-May-04 07:33N 30°01' W 093°58'3 3.2
2016-May-04 06:33N 29°60' W 093°55'1 1.1
2016-May-04 05:33N 29°59' W 093°54'3 2.8
2016-May-04 04:33N 29°59' W 093°50'8 7.6
2016-May-04 03:34N 30°03' W 093°43'6 5.6
2016-May-04 02:34N 30°04' W 093°37'5 4.9
2016-May-04 01:34N 30°04' W 093°31'5 4.8
2016-May-04 00:34N 30°04' W 093°26'4 4.1
2016-May-03 23:33N 30°04' W 093°21'3 3.3
2016-May-03 22:33N 30°05' W 093°18'3 3.5
2016-May-03 21:34N 30°02' W 093°16'3 3.3
2016-May-03 20:34N 29°60' W 093°13'3 3.5
2016-May-03 19:34N 29°57' W 093°10'5 5.2
2016-May-03 18:34N 29°56' W 093°05'6 5.8
2016-May-03 17:33N 29°56' W 092°58'  

Dump ship's entire track history